createdAt,value
2023-02-15T00:00:16.123Z,-1.30
2023-02-15T00:00:46.874Z,-1.30
2023-02-15T00:01:19.479Z,-1.30
2023-02-15T00:01:49.663Z,-1.30
2023-02-15T00:02:20.207Z,-1.30
2023-02-15T00:02:51.365Z,-1.30
2023-02-15T00:03:21.832Z,-1.30
2023-02-15T00:03:52.328Z,-1.30
2023-02-15T00:04:35.222Z,-1.30
2023-02-15T00:04:54.946Z,-1.30
2023-02-15T00:05:25.906Z,-1.40
2023-02-15T00:05:56.611Z,-1.30
2023-02-15T00:06:28.828Z,-1.30
2023-02-15T00:07:00.099Z,-1.30
2023-02-15T00:07:30.444Z,-1.30
2023-02-15T00:08:00.760Z,-1.30
2023-02-15T00:08:32.100Z,-1.30
2023-02-15T00:09:02.798Z,-1.30
2023-02-15T00:09:33.522Z,-1.30
2023-02-15T00:10:05.267Z,-1.30
2023-02-15T00:10:36.343Z,-1.30
2023-02-15T00:11:06.545Z,-1.30
2023-02-15T00:11:39.808Z,-1.30
2023-02-15T00:12:40.067Z,-1.30
2023-02-15T00:13:10.521Z,-1.20
2023-02-15T00:14:00.174Z,-1.20
2023-02-15T00:14:13.354Z,-1.20
2023-02-15T00:14:43.604Z,-1.20
2023-02-15T00:15:14.292Z,-1.20
2023-02-15T00:15:45.628Z,-1.20
2023-02-15T00:16:16.812Z,-1.20
2023-02-15T00:16:50.155Z,-1.20
2023-02-15T00:17:19.727Z,-1.20
2023-02-15T00:17:50.507Z,-1.20
2023-02-15T00:18:20.947Z,-1.20
2023-02-15T00:18:52.085Z,-1.20
2023-02-15T00:19:22.738Z,-1.20
2023-02-15T00:20:24.785Z,-1.20
2023-02-15T00:20:56.022Z,-1.20
2023-02-15T00:21:26.461Z,-1.20
2023-02-15T00:21:59.783Z,-1.10
2023-02-15T00:22:29.524Z,-1.10
2023-02-15T00:23:01.075Z,-1.10
2023-02-15T00:23:30.873Z,-1.10
2023-02-15T00:24:02.065Z,-1.10
2023-02-15T00:24:32.875Z,-1.10
2023-02-15T00:25:03.693Z,-1.10
2023-02-15T00:25:35.774Z,-1.10
2023-02-15T00:26:08.041Z,-1.10
2023-02-15T00:26:36.418Z,-1.10
2023-02-15T00:27:40.658Z,-1.10
2023-02-15T00:28:10.821Z,-1.10
2023-02-15T00:28:40.766Z,-1.10
2023-02-15T00:29:12.083Z,-1.10
2023-02-15T00:29:42.519Z,-1.10
2023-02-15T00:30:14.194Z,-1.10
2023-02-15T00:31:16.225Z,-1.10
2023-02-15T00:31:46.810Z,-1.10
2023-02-15T00:32:19.713Z,-1.10
2023-02-15T00:33:03.714Z,-1.10
2023-02-15T00:33:21.301Z,-1.10
2023-02-15T00:33:51.149Z,-1.10
2023-02-15T00:34:22.685Z,-1.10
2023-02-15T00:34:53.214Z,-1.10
2023-02-15T00:35:26.649Z,-1.10
2023-02-15T00:35:55.492Z,-1.10
2023-02-15T00:36:25.833Z,-1.10
2023-02-15T00:36:56.591Z,-1.10
2023-02-15T00:37:28.413Z,-1.10
2023-02-15T00:37:59.744Z,-1.10
2023-02-15T00:38:30.579Z,-1.10
2023-02-15T00:39:00.886Z,-1.10
2023-02-15T00:39:31.894Z,-1.10
2023-02-15T00:40:04.203Z,-1.10
2023-02-15T00:40:33.581Z,-1.10
2023-02-15T00:41:21.865Z,-1.10
2023-02-15T00:41:36.009Z,-1.10
2023-02-15T00:42:06.720Z,-1.10
2023-02-15T00:42:37.730Z,-1.10
2023-02-15T00:43:10.856Z,-1.10
2023-02-15T00:43:41.150Z,-1.10
2023-02-15T00:44:11.088Z,-1.10
2023-02-15T00:44:41.537Z,-1.10
2023-02-15T00:45:12.724Z,-1.10
2023-02-15T00:45:43.605Z,-1.10
2023-02-15T00:46:15.157Z,-1.10
2023-02-15T00:46:45.929Z,-1.10
2023-02-15T00:47:16.667Z,-1.10
2023-02-15T00:47:47.986Z,-1.10
2023-02-15T00:48:20.383Z,-1.10
2023-02-15T00:48:51.747Z,-1.10
2023-02-15T00:49:21.188Z,-1.10
2023-02-15T00:49:51.654Z,-1.10
2023-02-15T00:50:23.943Z,-1.10
2023-02-15T00:50:53.816Z,-1.10
2023-02-15T00:51:24.768Z,-1.10
2023-02-15T00:51:56.159Z,-1.10
2023-02-15T00:52:26.499Z,-1.10
2023-02-15T00:52:59.941Z,-1.10
2023-02-15T00:53:30.569Z,-1.10
2023-02-15T00:54:00.392Z,-1.10
2023-02-15T00:54:31.084Z,-1.10
2023-02-15T00:55:02.151Z,-1.10
2023-02-15T00:55:32.879Z,-1.10
2023-02-15T00:56:04.088Z,-1.10
2023-02-15T00:56:34.740Z,-1.10
2023-02-15T00:57:06.232Z,-1.10
2023-02-15T00:57:37.015Z,-1.10
2023-02-15T00:58:07.889Z,-1.10
2023-02-15T00:58:40.627Z,-1.10
2023-02-15T00:59:11.565Z,-1.10
2023-02-15T00:59:41.191Z,-1.10
2023-02-15T01:00:51.891Z,-1.10
2023-02-15T01:01:13.728Z,-1.10
2023-02-15T01:01:44.759Z,-1.10
2023-02-15T01:02:16.213Z,-1.10
2023-02-15T01:02:46.756Z,-1.10
2023-02-15T01:03:18.759Z,-1.10
2023-02-15T01:03:50.461Z,-1.10
2023-02-15T01:04:20.834Z,-1.10
2023-02-15T01:04:55.208Z,-1.10
2023-02-15T01:05:22.572Z,-1.10
2023-02-15T01:05:52.923Z,-1.10
2023-02-15T01:06:24.294Z,-1.10
2023-02-15T01:06:57.284Z,-1.10
2023-02-15T01:07:26.156Z,-1.10
2023-02-15T01:07:56.753Z,-1.10
2023-02-15T01:08:28.313Z,-1.10
2023-02-15T01:09:15.639Z,-1.10
2023-02-15T01:09:33.483Z,-1.10
2023-02-15T01:10:13.562Z,-1.10
2023-02-15T01:11:53.618Z,-1.10
2023-02-15T01:12:16.926Z,-1.10
2023-02-15T01:12:38.591Z,-1.10
2023-02-15T01:13:24.088Z,-1.10
2023-02-15T01:13:38.254Z,-1.00
2023-02-15T01:14:09.707Z,-1.00
2023-02-15T01:14:41.838Z,-1.00
2023-02-15T01:15:14.050Z,-1.00
2023-02-15T01:15:44.164Z,-1.00
2023-02-15T01:16:13.618Z,-1.00
2023-02-15T01:16:44.037Z,-1.00
2023-02-15T01:17:15.280Z,-1.00
2023-02-15T01:17:46.386Z,-1.00
2023-02-15T01:18:20.734Z,-1.00
2023-02-15T01:18:48.076Z,-1.00
2023-02-15T01:19:19.294Z,-1.00
2023-02-15T01:19:51.674Z,-1.00
2023-02-15T01:20:24.284Z,-1.00
2023-02-15T01:20:53.115Z,-1.00
2023-02-15T01:21:23.500Z,-1.00
2023-02-15T01:21:54.384Z,-1.00
2023-02-15T01:22:25.051Z,-1.00
2023-02-15T01:22:57.531Z,-1.00
2023-02-15T01:23:27.143Z,-1.00
2023-02-15T01:23:58.048Z,-1.00
2023-02-15T01:24:29.702Z,-1.00
2023-02-15T01:25:01.403Z,-1.00
2023-02-15T01:25:31.374Z,-1.00
2023-02-15T01:26:03.793Z,-.90
2023-02-15T01:26:33.493Z,-.90
2023-02-15T01:27:04.114Z,-.90
2023-02-15T01:27:35.014Z,-.90
2023-02-15T01:28:06.295Z,-1.00
2023-02-15T01:28:36.895Z,-1.00
2023-02-15T01:29:07.767Z,-1.00
2023-02-15T01:29:43.902Z,-1.00
2023-02-15T01:30:19.602Z,-1.10
2023-02-15T01:30:50.058Z,-1.10
2023-02-15T01:31:49.426Z,-1.10
2023-02-15T01:32:16.220Z,-1.10
2023-02-15T01:32:49.015Z,-1.10
2023-02-15T01:33:19.202Z,-1.10
2023-02-15T01:33:54.087Z,-1.10
2023-02-15T01:34:18.918Z,-1.10
2023-02-15T01:34:49.500Z,-1.10
2023-02-15T01:35:20.804Z,-1.10
2023-02-15T01:35:52.246Z,-1.10
2023-02-15T01:37:43.820Z,-1.10
2023-02-15T01:38:00.845Z,-1.10
2023-02-15T01:38:28.613Z,-1.10
2023-02-15T01:38:57.890Z,-1.10
2023-02-15T01:39:28.456Z,-1.10
2023-02-15T01:40:01.161Z,-1.10
2023-02-15T01:40:30.393Z,-1.10
2023-02-15T01:41:01.872Z,-1.10
2023-02-15T01:41:32.039Z,-1.10
2023-02-15T01:42:03.133Z,-1.10
2023-02-15T01:42:34.458Z,-1.10
2023-02-15T01:43:06.637Z,-1.10
2023-02-15T01:43:37.473Z,-1.10
2023-02-15T01:44:08.001Z,-1.10
2023-02-15T01:44:38.373Z,-1.10
2023-02-15T01:45:10.074Z,-1.10
2023-02-15T01:45:40.691Z,-1.10
2023-02-15T01:46:11.481Z,-1.10
2023-02-15T01:46:43.801Z,-1.10
2023-02-15T01:47:13.726Z,-1.10
2023-02-15T01:47:45.097Z,-1.10
2023-02-15T01:48:17.596Z,-1.10
2023-02-15T01:48:47.765Z,-1.10
2023-02-15T01:49:18.336Z,-1.10
2023-02-15T01:49:48.420Z,-1.10
2023-02-15T01:50:19.156Z,-1.10
2023-02-15T01:50:50.470Z,-1.10
2023-02-15T01:51:21.610Z,-1.10
2023-02-15T01:51:52.332Z,-1.10
2023-02-15T01:52:23.016Z,-1.10
2023-02-15T01:52:54.852Z,-1.10
2023-02-15T01:53:27.251Z,-1.10
2023-02-15T01:53:58.021Z,-1.10
2023-02-15T01:54:28.154Z,-1.10
2023-02-15T01:54:58.640Z,-1.10
2023-02-15T01:55:29.451Z,-1.10
2023-02-15T01:56:01.441Z,-1.10
2023-02-15T01:56:31.845Z,-1.10
2023-02-15T01:57:02.012Z,-1.10
2023-02-15T01:57:33.500Z,-1.10
2023-02-15T01:58:04.602Z,-1.10
2023-02-15T01:58:37.658Z,-1.20
2023-02-15T01:59:07.702Z,-1.20
2023-02-15T01:59:38.146Z,-1.20
2023-02-15T02:00:28.481Z,-1.20
2023-02-15T02:00:40.654Z,-1.20
2023-02-15T02:01:41.347Z,-1.10
2023-02-15T02:02:14.000Z,-1.10
2023-02-15T02:03:20.385Z,-1.10
2023-02-15T02:03:52.946Z,-1.10
2023-02-15T02:04:07.890Z,-1.10
2023-02-15T02:04:38.445Z,-1.10
2023-02-15T02:05:08.883Z,-1.10
2023-02-15T02:05:39.370Z,-1.10
2023-02-15T02:06:10.170Z,-1.10
2023-02-15T02:06:41.859Z,-1.10
2023-02-15T02:07:12.524Z,-1.10
2023-02-15T02:07:43.566Z,-1.10
2023-02-15T02:08:31.869Z,-1.20
2023-02-15T02:09:18.048Z,-1.20
2023-02-15T02:09:48.430Z,-1.20
2023-02-15T02:10:19.151Z,-1.20
2023-02-15T02:10:49.075Z,-1.20
2023-02-15T02:11:20.642Z,-1.20
2023-02-15T02:12:27.064Z,-1.20
2023-02-15T02:12:53.778Z,-1.20
2023-02-15T02:13:24.445Z,-1.20
2023-02-15T02:13:56.553Z,-1.20
2023-02-15T02:14:27.890Z,-1.20
2023-02-15T02:14:58.597Z,-1.20
2023-02-15T02:15:30.189Z,-1.30
2023-02-15T02:16:00.075Z,-1.30
2023-02-15T02:16:30.404Z,-1.30
2023-02-15T02:17:01.845Z,-1.30
2023-02-15T02:17:32.258Z,-1.30
2023-02-15T02:18:03.175Z,-1.30
2023-02-15T02:18:34.604Z,-1.30
2023-02-15T02:19:06.618Z,-1.40
2023-02-15T02:19:37.506Z,-1.40
2023-02-15T02:20:09.001Z,-1.40
2023-02-15T02:20:38.506Z,-1.40
2023-02-15T02:21:09.872Z,-1.40
2023-02-15T02:21:40.613Z,-1.40
2023-02-15T02:22:11.380Z,-1.40
2023-02-15T02:22:42.646Z,-1.40
2023-02-15T02:23:13.463Z,-1.40
2023-02-15T02:23:51.048Z,-1.40
2023-02-15T02:24:16.955Z,-1.40
2023-02-15T02:24:48.125Z,-1.40
2023-02-15T02:25:18.696Z,-1.40
2023-02-15T02:26:05.828Z,-1.40
2023-02-15T02:26:20.034Z,-1.40
2023-02-15T02:26:51.510Z,-1.40
2023-02-15T02:27:21.765Z,-1.40
2023-02-15T02:27:52.985Z,-1.40
2023-02-15T02:28:26.571Z,-1.40
2023-02-15T02:28:54.933Z,-1.40
2023-02-15T02:29:26.514Z,-1.40
2023-02-15T02:29:58.364Z,-1.40
2023-02-15T02:30:29.753Z,-1.40
2023-02-15T02:30:58.851Z,-1.40
2023-02-15T02:31:29.318Z,-1.40
2023-02-15T02:32:00.435Z,-1.40
2023-02-15T02:32:31.281Z,-1.40
2023-02-15T02:33:02.682Z,-1.40
2023-02-15T02:33:33.795Z,-1.40
2023-02-15T02:34:06.097Z,-1.30
2023-02-15T02:34:37.911Z,-1.30
2023-02-15T02:35:24.700Z,-1.30
2023-02-15T02:35:38.800Z,-1.30
2023-02-15T02:36:09.292Z,-1.40
2023-02-15T02:36:39.525Z,-1.40
2023-02-15T02:37:10.305Z,-1.40
2023-02-15T02:37:41.573Z,-1.40
2023-02-15T02:38:12.532Z,-1.40
2023-02-15T02:38:43.785Z,-1.40
2023-02-15T02:39:14.682Z,-1.40
2023-02-15T02:40:18.490Z,-1.40
2023-02-15T02:40:48.563Z,-1.40
2023-02-15T02:41:19.262Z,-1.40
2023-02-15T02:41:49.823Z,-1.40
2023-02-15T02:42:20.460Z,-1.40
2023-02-15T02:42:51.420Z,-1.40
2023-02-15T02:43:22.464Z,-1.40
2023-02-15T02:43:53.705Z,-1.40
2023-02-15T02:44:24.712Z,-1.40
2023-02-15T02:44:56.281Z,-1.40
2023-02-15T02:45:29.016Z,-1.40
2023-02-15T02:45:58.931Z,-1.40
2023-02-15T02:46:29.445Z,-1.40
2023-02-15T02:46:59.639Z,-1.40
2023-02-15T02:47:30.770Z,-1.40
2023-02-15T02:48:32.567Z,-1.50
2023-02-15T02:49:03.571Z,-1.50
2023-02-15T02:49:39.050Z,-1.50
2023-02-15T02:50:07.829Z,-1.50
2023-02-15T02:50:37.868Z,-1.50
2023-02-15T02:51:08.302Z,-1.50
2023-02-15T02:51:38.647Z,-1.50
2023-02-15T02:52:09.200Z,-1.50
2023-02-15T02:52:39.848Z,-1.50
2023-02-15T02:53:11.140Z,-1.50
2023-02-15T02:53:42.292Z,-1.50
2023-02-15T02:54:13.482Z,-1.50
2023-02-15T02:54:44.488Z,-1.50
2023-02-15T02:55:15.265Z,-1.50
2023-02-15T02:55:47.685Z,-1.50
2023-02-15T02:56:18.618Z,-1.50
2023-02-15T02:56:48.936Z,-1.50
2023-02-15T02:57:19.435Z,-1.50
2023-02-15T02:57:50.307Z,-1.40
2023-02-15T02:58:21.236Z,-1.40
2023-02-15T02:58:52.231Z,-1.40
2023-02-15T02:59:23.267Z,-1.40
2023-02-15T03:00:51.458Z,-1.40
2023-02-15T03:01:00.925Z,-1.40
2023-02-15T03:01:28.674Z,-1.40
2023-02-15T03:01:58.763Z,-1.40
2023-02-15T03:02:29.596Z,-1.40
2023-02-15T03:03:00.175Z,-1.40
2023-02-15T03:03:31.687Z,-1.40
2023-02-15T03:04:02.409Z,-1.40
2023-02-15T03:04:33.750Z,-1.40
2023-02-15T03:05:05.119Z,-1.40
2023-02-15T03:05:36.892Z,-1.30
2023-02-15T03:06:07.935Z,-1.30
2023-02-15T03:06:55.502Z,-1.30
2023-02-15T03:07:09.439Z,-1.30
2023-02-15T03:07:42.340Z,-1.30
2023-02-15T03:08:41.467Z,-1.30
2023-02-15T03:09:12.328Z,-1.30
2023-02-15T03:09:43.444Z,-1.30
2023-02-15T03:10:14.903Z,-1.30
2023-02-15T03:10:45.286Z,-1.30
2023-02-15T03:11:17.640Z,-1.30
2023-02-15T03:11:48.341Z,-1.30
2023-02-15T03:12:19.578Z,-1.30
2023-02-15T03:12:49.251Z,-1.30
2023-02-15T03:13:20.724Z,-1.30
2023-02-15T03:13:51.304Z,-1.30
2023-02-15T03:14:22.258Z,-1.30
2023-02-15T03:14:53.696Z,-1.30
2023-02-15T03:15:24.758Z,-1.30
2023-02-15T03:15:55.609Z,-1.30
2023-02-15T03:16:27.557Z,-1.30
2023-02-15T03:16:58.828Z,-1.30
2023-02-15T03:17:29.761Z,-1.30
2023-02-15T03:17:59.846Z,-1.30
2023-02-15T03:18:30.594Z,-1.30
2023-02-15T03:19:01.439Z,-1.30
2023-02-15T03:19:32.215Z,-1.30
2023-02-15T03:20:03.772Z,-1.30
2023-02-15T03:20:34.577Z,-1.30
2023-02-15T03:21:05.813Z,-1.30
2023-02-15T03:21:36.405Z,-1.30
2023-02-15T03:22:09.353Z,-1.30
2023-02-15T03:22:39.266Z,-1.30
2023-02-15T03:23:09.967Z,-1.30
2023-02-15T03:23:40.583Z,-1.30
2023-02-15T03:24:11.796Z,-1.30
2023-02-15T03:24:42.466Z,-1.30
2023-02-15T03:25:14.040Z,-1.30
2023-02-15T03:25:44.544Z,-1.30
2023-02-15T03:26:15.784Z,-1.30
2023-02-15T03:26:47.170Z,-1.30
2023-02-15T03:27:19.098Z,-1.30
2023-02-15T03:27:49.220Z,-1.30
2023-02-15T03:28:19.795Z,-1.30
2023-02-15T03:28:50.540Z,-1.30
2023-02-15T03:29:21.578Z,-1.30
2023-02-15T03:29:52.526Z,-1.30
2023-02-15T03:30:24.133Z,-1.30
2023-02-15T03:30:54.685Z,-1.30
2023-02-15T03:31:25.406Z,-1.30
2023-02-15T03:31:57.081Z,-1.30
2023-02-15T03:32:28.970Z,-1.30
2023-02-15T03:32:59.378Z,-1.30
2023-02-15T03:33:29.760Z,-1.40
2023-02-15T03:34:00.334Z,-1.40
2023-02-15T03:34:31.359Z,-1.40
2023-02-15T03:35:02.839Z,-1.40
2023-02-15T03:35:33.851Z,-1.40
2023-02-15T03:36:05.024Z,-1.40
2023-02-15T03:36:35.275Z,-1.40
2023-02-15T03:37:08.396Z,-1.40
2023-02-15T03:37:38.903Z,-1.40
2023-02-15T03:38:10.336Z,-1.40
2023-02-15T03:38:40.041Z,-1.40
2023-02-15T03:39:11.167Z,-1.40
2023-02-15T03:39:41.166Z,-1.40
2023-02-15T03:40:12.966Z,-1.40
2023-02-15T03:40:43.349Z,-1.40
2023-02-15T03:41:14.990Z,-1.40
2023-02-15T03:41:45.467Z,-1.40
2023-02-15T03:42:16.909Z,-1.40
2023-02-15T03:42:49.421Z,-1.50
2023-02-15T03:43:19.646Z,-1.50
2023-02-15T03:43:49.770Z,-1.50
2023-02-15T03:44:20.712Z,-1.50
2023-02-15T03:44:51.554Z,-1.50
2023-02-15T03:45:22.631Z,-1.50
2023-02-15T03:45:53.314Z,-1.50
2023-02-15T03:46:25.012Z,-1.50
2023-02-15T03:46:55.729Z,-1.50
2023-02-15T03:47:26.603Z,-1.50
2023-02-15T03:47:59.799Z,-1.50
2023-02-15T03:48:29.592Z,-1.50
2023-02-15T03:48:59.915Z,-1.50
2023-02-15T03:49:30.503Z,-1.50
2023-02-15T03:50:01.546Z,-1.50
2023-02-15T03:50:32.507Z,-1.50
2023-02-15T03:51:04.001Z,-1.50
2023-02-15T03:51:35.054Z,-1.50
2023-02-15T03:52:05.788Z,-1.60
2023-02-15T03:52:36.370Z,-1.60
2023-02-15T03:53:09.514Z,-1.60
2023-02-15T03:53:39.807Z,-1.60
2023-02-15T03:54:10.749Z,-1.60
2023-02-15T03:54:40.325Z,-1.70
2023-02-15T03:55:11.543Z,-1.70
2023-02-15T03:56:00.778Z,-1.70
2023-02-15T03:56:13.747Z,-1.70
2023-02-15T03:56:44.747Z,-1.70
2023-02-15T03:57:15.443Z,-1.70
2023-02-15T03:57:46.281Z,-1.70
2023-02-15T03:58:19.494Z,-1.70
2023-02-15T03:58:49.593Z,-1.70
2023-02-15T03:59:20.924Z,-1.70
2023-02-15T03:59:50.600Z,-1.70
2023-02-15T04:00:22.582Z,-1.70
2023-02-15T04:00:52.364Z,-1.70
2023-02-15T04:01:23.486Z,-1.70
2023-02-15T04:01:54.719Z,-1.70
2023-02-15T04:02:25.667Z,-1.70
2023-02-15T04:02:56.414Z,-1.70
2023-02-15T04:03:59.785Z,-1.80
2023-02-15T04:04:30.955Z,-1.80
2023-02-15T04:05:01.390Z,-1.80
2023-02-15T04:05:31.524Z,-1.80
2023-02-15T04:06:02.720Z,-1.80
2023-02-15T04:06:33.407Z,-1.80
2023-02-15T04:07:05.097Z,-1.90
2023-02-15T04:07:36.310Z,-1.90
2023-02-15T04:08:06.547Z,-1.90
2023-02-15T04:08:40.009Z,-1.90
2023-02-15T04:09:09.856Z,-1.90
2023-02-15T04:09:40.813Z,-1.90
2023-02-15T04:10:12.060Z,-1.90
2023-02-15T04:10:42.139Z,-1.90
2023-02-15T04:11:12.715Z,-2.00
2023-02-15T04:11:43.507Z,-2.00
2023-02-15T04:12:14.793Z,-2.00
2023-02-15T04:12:45.205Z,-2.00
2023-02-15T04:13:16.376Z,-2.00
2023-02-15T04:13:48.975Z,-2.00
2023-02-15T04:14:20.783Z,-2.00
2023-02-15T04:14:51.075Z,-2.00
2023-02-15T04:15:21.721Z,-2.00
2023-02-15T04:15:52.137Z,-2.00
2023-02-15T04:16:22.455Z,-2.00
2023-02-15T04:16:53.457Z,-2.00
2023-02-15T04:17:24.870Z,-2.10
2023-02-15T04:17:55.736Z,-2.10
2023-02-15T04:18:26.460Z,-2.10
2023-02-15T04:18:57.802Z,-2.00
2023-02-15T04:19:30.056Z,-2.00
2023-02-15T04:20:00.496Z,-2.00
2023-02-15T04:20:31.338Z,-2.00
2023-02-15T04:21:01.804Z,-2.00
2023-02-15T04:22:03.733Z,-2.00
2023-02-15T04:22:35.216Z,-2.00
2023-02-15T04:23:05.852Z,-2.00
2023-02-15T04:23:36.766Z,-2.00
2023-02-15T04:24:08.532Z,-2.00
2023-02-15T04:24:40.494Z,-2.00
2023-02-15T04:25:11.061Z,-2.00
2023-02-15T04:25:41.491Z,-2.00
2023-02-15T04:26:11.692Z,-2.00
2023-02-15T04:26:42.757Z,-2.00
2023-02-15T04:27:17.753Z,-2.10
2023-02-15T04:27:45.028Z,-2.10
2023-02-15T04:28:15.615Z,-2.10
2023-02-15T04:28:46.981Z,-2.10
2023-02-15T04:29:17.500Z,-2.10
2023-02-15T04:29:49.123Z,-2.10
2023-02-15T04:30:25.487Z,-2.10
2023-02-15T04:30:52.188Z,-2.10
2023-02-15T04:31:21.703Z,-2.10
2023-02-15T04:31:52.824Z,-2.10
2023-02-15T04:32:23.868Z,-2.10
2023-02-15T04:32:55.143Z,-2.10
2023-02-15T04:33:26.848Z,-2.10
2023-02-15T04:33:57.900Z,-2.10
2023-02-15T04:34:28.825Z,-2.20
2023-02-15T04:35:16.612Z,-2.20
2023-02-15T04:35:29.994Z,-2.20
2023-02-15T04:36:01.554Z,-2.20
2023-02-15T04:36:31.746Z,-2.20
2023-02-15T04:37:02.624Z,-2.20
2023-02-15T04:37:33.570Z,-2.20
2023-02-15T04:38:04.823Z,-2.20
2023-02-15T04:38:35.706Z,-2.20
2023-02-15T04:39:08.115Z,-2.20
2023-02-15T04:39:39.252Z,-2.20
2023-02-15T04:40:10.446Z,-2.20
2023-02-15T04:40:40.244Z,-2.20
2023-02-15T04:41:11.261Z,-2.20
2023-02-15T04:41:41.644Z,-2.30
2023-02-15T04:42:13.111Z,-2.30
2023-02-15T04:42:43.631Z,-2.30
2023-02-15T04:43:14.493Z,-2.30
2023-02-15T04:43:45.832Z,-2.30
2023-02-15T04:44:17.713Z,-2.30
2023-02-15T04:44:49.074Z,-2.30
2023-02-15T04:45:19.895Z,-2.30
2023-02-15T04:45:49.867Z,-2.30
2023-02-15T04:46:21.289Z,-2.30
2023-02-15T04:46:51.806Z,-2.30
2023-02-15T04:47:23.263Z,-2.30
2023-02-15T04:47:53.749Z,-2.30
2023-02-15T04:48:24.778Z,-2.30
2023-02-15T04:48:55.859Z,-2.30
2023-02-15T04:49:28.436Z,-2.30
2023-02-15T04:49:59.252Z,-2.30
2023-02-15T04:50:29.458Z,-2.30
2023-02-15T04:50:59.970Z,-2.30
2023-02-15T04:51:30.926Z,-2.30
2023-02-15T04:52:01.685Z,-2.40
2023-02-15T04:52:49.964Z,-2.40
2023-02-15T04:53:03.763Z,-2.40
2023-02-15T04:53:34.593Z,-2.40
2023-02-15T04:54:05.854Z,-2.40
2023-02-15T04:54:36.530Z,-2.40
2023-02-15T04:55:09.544Z,-2.40
2023-02-15T04:55:39.259Z,-2.40
2023-02-15T04:56:09.877Z,-2.40
2023-02-15T04:56:40.702Z,-2.40
2023-02-15T04:57:11.599Z,-2.40
2023-02-15T04:57:42.647Z,-2.40
2023-02-15T04:58:13.462Z,-2.40
2023-02-15T04:58:44.960Z,-2.40
2023-02-15T04:59:15.998Z,-2.40
2023-02-15T04:59:47.331Z,-2.40
2023-02-15T05:00:20.787Z,-2.40
2023-02-15T05:00:49.467Z,-2.40
2023-02-15T05:01:19.816Z,-2.40
2023-02-15T05:01:50.805Z,-2.40
2023-02-15T05:02:21.583Z,-2.40
2023-02-15T05:02:52.951Z,-2.40
2023-02-15T05:03:23.724Z,-2.40
2023-02-15T05:03:54.745Z,-2.40
2023-02-15T05:04:27.217Z,-2.40
2023-02-15T05:04:58.405Z,-2.40
2023-02-15T05:05:29.862Z,-2.40
2023-02-15T05:06:00.325Z,-2.40
2023-02-15T05:06:29.791Z,-2.40
2023-02-15T05:07:01.070Z,-2.40
2023-02-15T05:07:49.930Z,-2.40
2023-02-15T05:08:03.678Z,-2.40
2023-02-15T05:08:33.795Z,-2.40
2023-02-15T05:09:05.279Z,-2.40
2023-02-15T05:09:36.799Z,-2.40
2023-02-15T05:10:10.079Z,-2.40
2023-02-15T05:10:39.779Z,-2.40
2023-02-15T05:11:09.551Z,-2.40
2023-02-15T05:11:40.710Z,-2.40
2023-02-15T05:12:11.157Z,-2.50
2023-02-15T05:12:41.914Z,-2.50
2023-02-15T05:13:13.219Z,-2.50
2023-02-15T05:13:44.024Z,-2.50
2023-02-15T05:14:15.169Z,-2.50
2023-02-15T05:14:46.958Z,-2.50
2023-02-15T05:15:18.054Z,-2.50
2023-02-15T05:15:50.018Z,-2.50
2023-02-15T05:16:19.236Z,-2.50
2023-02-15T05:16:49.817Z,-2.50
2023-02-15T05:17:32.213Z,-2.50
2023-02-15T05:17:51.717Z,-2.50
2023-02-15T05:18:23.173Z,-2.50
2023-02-15T05:19:08.579Z,-2.60
2023-02-15T05:19:24.603Z,-2.60
2023-02-15T05:19:56.854Z,-2.60
2023-02-15T05:20:28.755Z,-2.60
2023-02-15T05:20:59.530Z,-2.60
2023-02-15T05:21:29.277Z,-2.60
2023-02-15T05:22:00.158Z,-2.60
2023-02-15T05:22:31.006Z,-2.60
2023-02-15T05:23:02.178Z,-2.60
2023-02-15T05:23:32.698Z,-2.60
2023-02-15T05:24:04.002Z,-2.60
2023-02-15T05:24:35.657Z,-2.60
2023-02-15T05:25:07.063Z,-2.60
2023-02-15T05:25:36.865Z,-2.60
2023-02-15T05:26:09.632Z,-2.60
2023-02-15T05:26:39.811Z,-2.60
2023-02-15T05:27:10.098Z,-2.60
2023-02-15T05:27:41.171Z,-2.60
2023-02-15T05:28:12.618Z,-2.60
2023-02-15T05:28:59.924Z,-2.60
2023-02-15T05:29:13.886Z,-2.60
2023-02-15T05:29:44.917Z,-2.60
2023-02-15T05:30:47.412Z,-2.70
2023-02-15T05:31:19.492Z,-2.70
2023-02-15T05:31:49.880Z,-2.70
2023-02-15T05:32:22.609Z,-2.70
2023-02-15T05:32:51.139Z,-2.70
2023-02-15T05:33:21.643Z,-2.60
2023-02-15T05:33:53.719Z,-2.70
2023-02-15T05:34:24.325Z,-2.70
2023-02-15T05:34:55.382Z,-2.70
2023-02-15T05:35:25.903Z,-2.70
2023-02-15T05:35:56.858Z,-2.70
2023-02-15T05:36:59.971Z,-2.70
2023-02-15T05:37:30.057Z,-2.70
2023-02-15T05:38:17.939Z,-2.70
2023-02-15T05:38:31.916Z,-2.60
2023-02-15T05:39:03.072Z,-2.60
2023-02-15T05:39:35.423Z,-2.60
2023-02-15T05:40:05.660Z,-2.60
2023-02-15T05:40:37.504Z,-2.60
2023-02-15T05:41:08.748Z,-2.60
2023-02-15T05:41:41.289Z,-2.60
2023-02-15T05:42:09.748Z,-2.60
2023-02-15T05:42:40.240Z,-2.60
2023-02-15T05:43:12.147Z,-2.60
2023-02-15T05:43:42.508Z,-2.60
2023-02-15T05:44:13.705Z,-2.60
2023-02-15T05:44:44.294Z,-2.60
2023-02-15T05:45:21.326Z,-2.60
2023-02-15T05:45:46.435Z,-2.60
2023-02-15T05:46:18.724Z,-2.60
2023-02-15T05:46:48.954Z,-2.60
2023-02-15T05:47:19.147Z,-2.60
2023-02-15T05:47:50.549Z,-2.60
2023-02-15T05:48:21.470Z,-2.60
2023-02-15T05:48:51.663Z,-2.60
2023-02-15T05:49:23.142Z,-2.60
2023-02-15T05:49:54.267Z,-2.60
2023-02-15T05:50:25.704Z,-2.60
2023-02-15T05:50:56.324Z,-2.60
2023-02-15T05:51:28.677Z,-2.60
2023-02-15T05:51:59.096Z,-2.60
2023-02-15T05:52:29.585Z,-2.60
2023-02-15T05:53:00.374Z,-2.60
2023-02-15T05:53:31.004Z,-2.60
2023-02-15T05:54:01.944Z,-2.60
2023-02-15T05:54:33.089Z,-2.60
2023-02-15T05:55:04.716Z,-2.60
2023-02-15T05:55:35.240Z,-2.60
2023-02-15T05:56:07.076Z,-2.60
2023-02-15T05:56:38.937Z,-2.60
2023-02-15T05:57:10.281Z,-2.60
2023-02-15T05:57:40.302Z,-2.60
2023-02-15T05:58:11.181Z,-2.60
2023-02-15T05:58:41.670Z,-2.60
2023-02-15T05:59:12.068Z,-2.60
2023-02-15T05:59:43.150Z,-2.60
2023-02-15T06:00:14.865Z,-2.70
2023-02-15T06:00:46.064Z,-2.70
2023-02-15T06:01:15.986Z,-2.70
2023-02-15T06:01:48.442Z,-2.70
2023-02-15T06:02:19.286Z,-2.70
2023-02-15T06:02:49.513Z,-2.70
2023-02-15T06:03:20.248Z,-2.70
2023-02-15T06:03:51.283Z,-2.60
2023-02-15T06:04:52.877Z,-2.60
2023-02-15T06:05:23.956Z,-2.70
2023-02-15T06:05:55.292Z,-2.70
2023-02-15T06:06:31.017Z,-2.70
2023-02-15T06:07:14.325Z,-2.70
2023-02-15T06:07:30.130Z,-2.70
2023-02-15T06:08:01.544Z,-2.70
2023-02-15T06:08:30.996Z,-2.70
2023-02-15T06:09:01.256Z,-2.70
2023-02-15T06:09:32.351Z,-2.70
2023-02-15T06:11:45.749Z,-2.70
2023-02-15T06:12:10.030Z,-2.70
2023-02-15T06:12:39.386Z,-2.70
2023-02-15T06:13:09.599Z,-2.70
2023-02-15T06:13:59.774Z,-2.70
2023-02-15T06:14:31.392Z,-2.70
2023-02-15T06:14:43.285Z,-2.70
2023-02-15T06:15:13.495Z,-2.70
2023-02-15T06:15:47.716Z,-2.70
2023-02-15T06:16:14.986Z,-2.70
2023-02-15T06:17:19.323Z,-2.70
2023-02-15T06:17:49.650Z,-2.70
2023-02-15T06:18:19.657Z,-2.80
2023-02-15T06:18:59.504Z,-2.80
2023-02-15T06:19:21.039Z,-2.80
2023-02-15T06:19:52.032Z,-2.80
2023-02-15T06:20:23.380Z,-2.80
2023-02-15T06:20:53.841Z,-2.80
2023-02-15T06:21:24.983Z,-2.80
2023-02-15T06:21:56.316Z,-2.80
2023-02-15T06:22:29.032Z,-2.80
2023-02-15T06:22:59.766Z,-2.80
2023-02-15T06:23:30.279Z,-2.80
2023-02-15T06:24:00.741Z,-2.80
2023-02-15T06:24:31.141Z,-2.80
2023-02-15T06:25:02.572Z,-2.80
2023-02-15T06:25:34.717Z,-2.80
2023-02-15T06:26:21.561Z,-2.80
2023-02-15T06:26:39.225Z,-2.80
2023-02-15T06:27:06.349Z,-2.80
2023-02-15T06:27:39.602Z,-2.80
2023-02-15T06:28:25.402Z,-2.80
2023-02-15T06:28:41.867Z,-2.80
2023-02-15T06:29:11.665Z,-2.80
2023-02-15T06:29:44.176Z,-2.90
2023-02-15T06:30:20.864Z,-2.90
2023-02-15T06:31:01.402Z,-2.90
2023-02-15T06:31:14.489Z,-2.90
2023-02-15T06:31:45.260Z,-2.90
2023-02-15T06:32:16.505Z,-3.00
2023-02-15T06:33:04.413Z,-3.00
2023-02-15T06:33:19.701Z,-3.00
2023-02-15T06:33:49.813Z,-3.10
2023-02-15T06:34:20.538Z,-3.10
2023-02-15T06:34:53.502Z,-3.10
2023-02-15T06:35:22.437Z,-3.10
2023-02-15T06:35:53.182Z,-3.10
2023-02-15T06:36:24.852Z,-3.10
2023-02-15T06:36:55.128Z,-3.10
2023-02-15T06:37:26.753Z,-3.10
2023-02-15T06:37:59.032Z,-3.10
2023-02-15T06:39:00.903Z,-3.10
2023-02-15T06:39:30.476Z,-3.10
2023-02-15T06:40:03.674Z,-3.00
2023-02-15T06:40:32.645Z,-3.00
2023-02-15T06:41:03.232Z,-3.00
2023-02-15T06:41:34.303Z,-3.00
2023-02-15T06:42:05.253Z,-3.00
2023-02-15T06:42:36.577Z,-3.00
2023-02-15T06:43:08.727Z,-3.00
2023-02-15T06:43:41.142Z,-3.00
2023-02-15T06:44:11.028Z,-3.00
2023-02-15T06:44:40.586Z,-3.00
2023-02-15T06:45:12.023Z,-3.00
2023-02-15T06:45:42.541Z,-3.00
2023-02-15T06:46:13.974Z,-3.00
2023-02-15T06:46:44.384Z,-3.00
2023-02-15T06:47:20.644Z,-3.10
2023-02-15T06:47:46.288Z,-3.10
2023-02-15T06:48:20.805Z,-3.10
2023-02-15T06:48:50.353Z,-3.10
2023-02-15T06:49:21.165Z,-3.10
2023-02-15T06:49:51.377Z,-3.10
2023-02-15T06:50:22.034Z,-3.10
2023-02-15T06:50:52.614Z,-3.10
2023-02-15T06:51:23.204Z,-3.10
2023-02-15T06:51:54.111Z,-3.10
2023-02-15T06:52:25.500Z,-3.10
2023-02-15T06:53:14.246Z,-3.00
2023-02-15T06:53:28.575Z,-3.00